In Rescue
 
Open Full Screen Window  High Contrast Mode
Wind Gusting 00 knots
03
July 24, 2024 4:17 PM CDT
Weather Information
Wind Direction
  120 °
Wind Speed
  03 kt (3 mph)
Wind Gust
  00 kt (0 mph)
Altimeter
30.22 in
Visibility
10 SM
Temperature
22° C
72° F
Dewpoint
13° C
55° F
Humidity
57%
1hr Rain Fall
00.00 in.
24hr Rain Fall
00.02 in.
Sky Condition
Clear
VFR

METAR KTWM 242117Z AUTO 12003KT 10SM CLR 22/13 A3022 RMK AO2

FAA Disclaimer: The data displayed is for advisory purposes only and is not to be used for flight planning or operations.